sensor_id;sensor_type;location;lat;lon;timestamp;P1;durP1;ratioP1;P2;durP2;ratioP2
70927;SDS011;58587;53.034;18.576;2023-10-19T12:02:06;22.83;;;10.93;;
70927;SDS011;58587;53.034;18.576;2023-10-19T12:04:32;19.67;;;10.63;;
70927;SDS011;58587;53.034;18.576;2023-10-19T12:07:01;17.50;;;9.65;;
70927;SDS011;58587;53.034;18.576;2023-10-19T12:09:26;19.85;;;11.10;;
70927;SDS011;58587;53.034;18.576;2023-10-19T12:11:53;17.75;;;10.30;;
70927;SDS011;58587;53.034;18.576;2023-10-19T12:14:19;23.40;;;11.17;;
70927;SDS011;58587;53.034;18.576;2023-10-19T12:16:46;20.88;;;11.23;;
70927;SDS011;58587;53.034;18.576;2023-10-19T12:19:12;19.38;;;10.98;;
70927;SDS011;58587;53.034;18.576;2023-10-19T12:21:39;19.02;;;11.60;;
70927;SDS011;58587;53.034;18.576;2023-10-19T12:24:06;20.40;;;11.27;;
70927;SDS011;58587;53.034;18.576;2023-10-19T12:26:32;29.38;;;13.65;;
70927;SDS011;58587;53.034;18.576;2023-10-19T12:28:58;26.60;;;12.50;;
70927;SDS011;58587;53.034;18.576;2023-10-19T12:31:24;20.20;;;11.93;;
70927;SDS011;58587;53.034;18.576;2023-10-19T12:33:50;24.92;;;12.73;;
70927;SDS011;58587;53.034;18.576;2023-10-19T12:36:15;28.67;;;13.17;;
70927;SDS011;58587;53.034;18.576;2023-10-19T12:38:47;25.95;;;12.80;;
70927;SDS011;58587;53.034;18.576;2023-10-19T12:41:12;27.00;;;11.90;;
70927;SDS011;58587;53.034;18.576;2023-10-19T12:43:39;22.77;;;11.43;;
70927;SDS011;58587;53.034;18.576;2023-10-19T12:46:04;19.37;;;11.10;;
70927;SDS011;58587;53.034;18.576;2023-10-19T12:48:33;22.67;;;11.60;;
70927;SDS011;58587;53.034;18.576;2023-10-19T12:51:00;21.30;;;11.05;;
70927;SDS011;58587;53.034;18.576;2023-10-19T12:53:29;21.23;;;11.15;;
70927;SDS011;58587;53.034;18.576;2023-10-19T12:55:54;20.40;;;11.70;;
70927;SDS011;58587;53.034;18.576;2023-10-19T12:58:20;19.10;;;10.70;;
70927;SDS011;58587;53.034;18.576;2023-10-19T13:00:46;18.33;;;11.02;;
70927;SDS011;58587;53.034;18.576;2023-10-19T13:03:14;23.90;;;12.52;;
70927;SDS011;58587;53.034;18.576;2023-10-19T13:05:41;22.60;;;13.77;;
70927;SDS011;58587;53.034;18.576;2023-10-19T13:08:09;25.80;;;13.32;;
70927;SDS011;58587;53.034;18.576;2023-10-19T13:10:38;23.52;;;11.32;;
70927;SDS011;58587;53.034;18.576;2023-10-19T13:13:07;19.33;;;10.60;;
70927;SDS011;58587;53.034;18.576;2023-10-19T13:15:36;21.13;;;10.65;;
70927;SDS011;58587;53.034;18.576;2023-10-19T13:18:04;23.77;;;11.75;;
70927;SDS011;58587;53.034;18.576;2023-10-19T13:20:35;21.83;;;10.32;;
70927;SDS011;58587;53.034;18.576;2023-10-19T13:23:05;22.33;;;11.55;;
70927;SDS011;58587;53.034;18.576;2023-10-19T13:25:32;22.00;;;11.52;;
70927;SDS011;58587;53.034;18.576;2023-10-19T13:28:05;19.20;;;10.80;;
70927;SDS011;58587;53.034;18.576;2023-10-19T13:30:37;24.88;;;13.23;;
70927;SDS011;58587;53.034;18.576;2023-10-19T13:33:07;20.60;;;10.98;;
70927;SDS011;58587;53.034;18.576;2023-10-19T13:35:39;21.50;;;11.18;;
70927;SDS011;58587;53.034;18.576;2023-10-19T13:38:05;29.25;;;13.68;;
70927;SDS011;58587;53.034;18.576;2023-10-19T13:40:32;21.52;;;11.98;;
70927;SDS011;58587;53.034;18.576;2023-10-19T13:43:01;21.83;;;11.48;;
70927;SDS011;58587;53.034;18.576;2023-10-19T13:45:30;28.33;;;12.93;;
70927;SDS011;58587;53.034;18.576;2023-10-19T13:47:56;21.25;;;11.40;;
70927;SDS011;58587;53.034;18.576;2023-10-19T13:50:23;22.45;;;11.02;;
70927;SDS011;58587;53.034;18.576;2023-10-19T13:52:50;22.25;;;12.63;;
70927;SDS011;58587;53.034;18.576;2023-10-19T13:55:17;26.08;;;12.75;;
70927;SDS011;58587;53.034;18.576;2023-10-19T13:57:45;32.00;;;14.95;;
70927;SDS011;58587;53.034;18.576;2023-10-19T14:00:11;34.70;;;14.77;;
70927;SDS011;58587;53.034;18.576;2023-10-19T14:02:44;25.05;;;11.93;;
70927;SDS011;58587;53.034;18.576;2023-10-19T14:05:11;27.87;;;13.77;;
70927;SDS011;58587;53.034;18.576;2023-10-19T14:07:36;49.17;;;17.65;;
70927;SDS011;58587;53.034;18.576;2023-10-19T14:10:05;33.97;;;14.60;;
70927;SDS011;58587;53.034;18.576;2023-10-19T14:12:37;21.42;;;11.35;;
70927;SDS011;58587;53.034;18.576;2023-10-19T14:15:02;24.27;;;11.47;;
70927;SDS011;58587;53.034;18.576;2023-10-19T14:17:28;24.58;;;11.50;;
70927;SDS011;58587;53.034;18.576;2023-10-19T14:19:55;32.13;;;14.57;;
70927;SDS011;58587;53.034;18.576;2023-10-19T14:22:20;27.03;;;13.30;;
70927;SDS011;58587;53.034;18.576;2023-10-19T14:24:45;25.03;;;13.03;;
70927;SDS011;58587;53.034;18.576;2023-10-19T14:27:11;23.33;;;11.63;;
70927;SDS011;58587;53.034;18.576;2023-10-19T14:29:36;20.70;;;11.32;;
70927;SDS011;58587;53.034;18.576;2023-10-19T14:32:02;20.20;;;11.93;;
70927;SDS011;58587;53.034;18.576;2023-10-19T14:34:28;19.35;;;11.05;;
70927;SDS011;58587;53.034;18.576;2023-10-19T14:36:53;18.50;;;10.40;;
70927;SDS011;58587;53.034;18.576;2023-10-19T14:39:19;23.23;;;12.43;;
70927;SDS011;58587;53.034;18.576;2023-10-19T14:41:45;21.53;;;11.50;;
70927;SDS011;58587;53.034;18.576;2023-10-19T14:44:11;17.45;;;10.77;;
70927;SDS011;58587;53.034;18.576;2023-10-19T14:46:36;18.17;;;9.93;;
70927;SDS011;58587;53.034;18.576;2023-10-19T14:49:02;17.90;;;10.33;;
70927;SDS011;58587;53.034;18.576;2023-10-19T14:51:27;17.55;;;9.57;;
70927;SDS011;58587;53.034;18.576;2023-10-19T14:53:53;20.37;;;9.57;;
70927;SDS011;58587;53.034;18.576;2023-10-19T14:56:18;17.47;;;9.67;;
70927;SDS011;58587;53.034;18.576;2023-10-19T14:58:44;23.83;;;10.83;;
70927;SDS011;58587;53.034;18.576;2023-10-19T15:01:09;20.95;;;9.98;;
70927;SDS011;58587;53.034;18.576;2023-10-19T15:03:41;18.75;;;9.85;;
70927;SDS011;58587;53.034;18.576;2023-10-19T15:06:07;23.03;;;9.63;;
70927;SDS011;58587;53.034;18.576;2023-10-19T15:08:32;17.23;;;9.87;;
70927;SDS011;58587;53.034;18.576;2023-10-19T15:10:58;18.13;;;9.60;;
70927;SDS011;58587;53.034;18.576;2023-10-19T15:13:23;15.73;;;9.65;;
70927;SDS011;58587;53.034;18.576;2023-10-19T15:15:49;17.30;;;9.40;;
70927;SDS011;58587;53.034;18.576;2023-10-19T15:18:14;20.60;;;10.95;;
70927;SDS011;58587;53.034;18.576;2023-10-19T15:20:40;29.93;;;13.93;;
70927;SDS011;58587;53.034;18.576;2023-10-19T15:23:06;30.83;;;12.93;;
70927;SDS011;58587;53.034;18.576;2023-10-19T15:25:32;27.83;;;12.30;;
70927;SDS011;58587;53.034;18.576;2023-10-19T15:27:58;26.25;;;12.40;;
70927;SDS011;58587;53.034;18.576;2023-10-19T15:30:23;34.83;;;15.43;;
70927;SDS011;58587;53.034;18.576;2023-10-19T15:32:50;26.13;;;12.23;;
70927;SDS011;58587;53.034;18.576;2023-10-19T15:35:18;20.38;;;9.77;;
70927;SDS011;58587;53.034;18.576;2023-10-19T15:37:47;26.48;;;12.35;;
70927;SDS011;58587;53.034;18.576;2023-10-19T15:40:19;24.60;;;11.57;;
70927;SDS011;58587;53.034;18.576;2023-10-19T15:42:45;20.13;;;11.40;;
70927;SDS011;58587;53.034;18.576;2023-10-19T15:45:11;22.95;;;12.00;;
70927;SDS011;58587;53.034;18.576;2023-10-19T15:47:38;19.60;;;11.02;;
70927;SDS011;58587;53.034;18.576;2023-10-19T15:50:05;18.90;;;10.45;;
70927;SDS011;58587;53.034;18.576;2023-10-19T15:52:33;16.23;;;9.57;;
70927;SDS011;58587;53.034;18.576;2023-10-19T15:55:00;18.45;;;9.73;;
70927;SDS011;58587;53.034;18.576;2023-10-19T15:57:25;17.42;;;9.68;;
70927;SDS011;58587;53.034;18.576;2023-10-19T15:59:51;15.90;;;9.03;;
70927;SDS011;58587;53.034;18.576;2023-10-19T16:02:16;18.30;;;10.10;;
70927;SDS011;58587;53.034;18.576;2023-10-19T16:04:42;19.92;;;10.88;;
70927;SDS011;58587;53.034;18.576;2023-10-19T16:07:09;15.55;;;9.32;;
70927;SDS011;58587;53.034;18.576;2023-10-19T16:09:36;19.90;;;10.45;;
70927;SDS011;58587;53.034;18.576;2023-10-19T16:12:02;18.52;;;10.02;;
70927;SDS011;58587;53.034;18.576;2023-10-19T16:14:28;20.85;;;11.70;;
70927;SDS011;58587;53.034;18.576;2023-10-19T16:16:54;19.70;;;11.53;;
70927;SDS011;58587;53.034;18.576;2023-10-19T16:19:19;18.33;;;9.93;;
70927;SDS011;58587;53.034;18.576;2023-10-19T16:21:45;19.63;;;9.85;;
70927;SDS011;58587;53.034;18.576;2023-10-19T16:24:11;18.67;;;10.27;;
70927;SDS011;58587;53.034;18.576;2023-10-19T16:26:37;22.80;;;11.52;;
70927;SDS011;58587;53.034;18.576;2023-10-19T16:29:04;21.25;;;11.45;;
70927;SDS011;58587;53.034;18.576;2023-10-19T16:31:33;20.50;;;12.30;;
70927;SDS011;58587;53.034;18.576;2023-10-19T16:33:59;23.65;;;13.05;;
70927;SDS011;58587;53.034;18.576;2023-10-19T16:36:25;21.27;;;11.87;;
70927;SDS011;58587;53.034;18.576;2023-10-19T16:38:53;19.00;;;11.07;;
70927;SDS011;58587;53.034;18.576;2023-10-19T16:41:19;19.38;;;10.88;;
70927;SDS011;58587;53.034;18.576;2023-10-19T16:43:45;19.57;;;10.60;;
70927;SDS011;58587;53.034;18.576;2023-10-19T16:46:11;34.60;;;15.80;;
70927;SDS011;58587;53.034;18.576;2023-10-19T16:48:37;26.90;;;12.95;;
70927;SDS011;58587;53.034;18.576;2023-10-19T16:51:03;22.83;;;12.10;;
70927;SDS011;58587;53.034;18.576;2023-10-19T16:53:29;19.30;;;11.00;;
70927;SDS011;58587;53.034;18.576;2023-10-19T16:56:01;28.10;;;14.33;;
70927;SDS011;58587;53.034;18.576;2023-10-19T16:58:27;21.73;;;11.18;;
70927;SDS011;58587;53.034;18.576;2023-10-19T17:00:53;16.53;;;9.40;;
70927;SDS011;58587;53.034;18.576;2023-10-19T17:03:18;20.67;;;10.97;;
70927;SDS011;58587;53.034;18.576;2023-10-19T17:05:43;17.67;;;9.38;;
70927;SDS011;58587;53.034;18.576;2023-10-19T17:08:09;20.20;;;10.93;;
70927;SDS011;58587;53.034;18.576;2023-10-19T17:10:35;28.23;;;13.40;;
70927;SDS011;58587;53.034;18.576;2023-10-19T17:13:01;30.80;;;14.38;;
70927;SDS011;58587;53.034;18.576;2023-10-19T17:15:27;34.43;;;18.60;;
70927;SDS011;58587;53.034;18.576;2023-10-19T17:17:52;33.97;;;16.58;;
70927;SDS011;58587;53.034;18.576;2023-10-19T17:20:19;27.75;;;15.27;;
70927;SDS011;58587;53.034;18.576;2023-10-19T17:22:44;27.52;;;14.15;;
70927;SDS011;58587;53.034;18.576;2023-10-19T17:25:10;20.60;;;11.53;;
70927;SDS011;58587;53.034;18.576;2023-10-19T17:27:35;29.15;;;14.43;;
70927;SDS011;58587;53.034;18.576;2023-10-19T17:30:01;72.97;;;28.10;;
70927;SDS011;58587;53.034;18.576;2023-10-19T17:32:27;111.65;;;44.92;;
70927;SDS011;58587;53.034;18.576;2023-10-19T17:34:53;62.00;;;25.47;;
70927;SDS011;58587;53.034;18.576;2023-10-19T17:37:19;42.70;;;16.63;;
70927;SDS011;58587;53.034;18.576;2023-10-19T17:39:44;31.73;;;13.00;;
70927;SDS011;58587;53.034;18.576;2023-10-19T17:42:10;48.13;;;15.68;;
70927;SDS011;58587;53.034;18.576;2023-10-19T17:44:36;32.40;;;11.93;;
70927;SDS011;58587;53.034;18.576;2023-10-19T17:47:01;29.77;;;12.23;;
70927;SDS011;58587;53.034;18.576;2023-10-19T17:49:26;31.00;;;13.13;;
70927;SDS011;58587;53.034;18.576;2023-10-19T17:51:55;37.20;;;13.00;;
70927;SDS011;58587;53.034;18.576;2023-10-19T17:54:20;31.75;;;12.10;;
70927;SDS011;58587;53.034;18.576;2023-10-19T17:56:46;23.50;;;10.47;;
70927;SDS011;58587;53.034;18.576;2023-10-19T17:59:12;24.70;;;11.18;;
70927;SDS011;58587;53.034;18.576;2023-10-19T18:01:37;31.50;;;12.70;;
70927;SDS011;58587;53.034;18.576;2023-10-19T18:04:04;22.80;;;10.48;;
70927;SDS011;58587;53.034;18.576;2023-10-19T18:06:29;19.10;;;9.20;;
70927;SDS011;58587;53.034;18.576;2023-10-19T18:08:55;21.30;;;9.70;;
70927;SDS011;58587;53.034;18.576;2023-10-19T18:11:24;20.52;;;9.40;;
70927;SDS011;58587;53.034;18.576;2023-10-19T18:13:50;25.90;;;11.03;;
70927;SDS011;58587;53.034;18.576;2023-10-19T18:16:15;20.03;;;9.17;;
70927;SDS011;58587;53.034;18.576;2023-10-19T18:18:41;20.97;;;10.27;;
70927;SDS011;58587;53.034;18.576;2023-10-19T18:21:13;25.45;;;10.55;;
70927;SDS011;58587;53.034;18.576;2023-10-19T18:23:42;20.58;;;9.93;;
70927;SDS011;58587;53.034;18.576;2023-10-19T18:26:11;24.20;;;10.23;;
70927;SDS011;58587;53.034;18.576;2023-10-19T18:28:37;18.42;;;9.15;;
70927;SDS011;58587;53.034;18.576;2023-10-19T18:31:07;17.40;;;8.02;;
70927;SDS011;58587;53.034;18.576;2023-10-19T18:33:32;20.58;;;9.63;;
70927;SDS011;58587;53.034;18.576;2023-10-19T18:36:01;17.98;;;7.90;;
70927;SDS011;58587;53.034;18.576;2023-10-19T18:38:31;20.42;;;7.75;;
70927;SDS011;58587;53.034;18.576;2023-10-19T18:40:59;15.85;;;8.13;;
70927;SDS011;58587;53.034;18.576;2023-10-19T18:43:26;21.60;;;9.48;;
70927;SDS011;58587;53.034;18.576;2023-10-19T18:45:54;19.40;;;8.82;;
70927;SDS011;58587;53.034;18.576;2023-10-19T18:48:20;15.68;;;6.70;;
70927;SDS011;58587;53.034;18.576;2023-10-19T18:50:58;12.50;;;6.68;;
70927;SDS011;58587;53.034;18.576;2023-10-19T18:53:28;15.38;;;6.93;;
70927;SDS011;58587;53.034;18.576;2023-10-19T18:55:55;15.02;;;6.75;;
70927;SDS011;58587;53.034;18.576;2023-10-19T18:58:21;14.90;;;7.20;;
70927;SDS011;58587;53.034;18.576;2023-10-19T19:00:58;13.35;;;6.95;;
70927;SDS011;58587;53.034;18.576;2023-10-19T19:03:25;13.85;;;6.95;;
70927;SDS011;58587;53.034;18.576;2023-10-19T19:05:54;17.40;;;7.10;;
70927;SDS011;58587;53.034;18.576;2023-10-19T19:08:22;11.67;;;6.13;;
70927;SDS011;58587;53.034;18.576;2023-10-19T19:10:49;16.90;;;7.20;;
70927;SDS011;58587;53.034;18.576;2023-10-19T19:13:15;18.33;;;7.53;;
70927;SDS011;58587;53.034;18.576;2023-10-19T19:15:40;17.48;;;7.18;;
70927;SDS011;58587;53.034;18.576;2023-10-19T19:18:06;13.27;;;6.13;;
70927;SDS011;58587;53.034;18.576;2023-10-19T19:20:32;13.30;;;5.90;;
70927;SDS011;58587;53.034;18.576;2023-10-19T19:22:57;17.60;;;7.33;;
70927;SDS011;58587;53.034;18.576;2023-10-19T19:25:23;11.55;;;4.82;;
70927;SDS011;58587;53.034;18.576;2023-10-19T19:27:48;10.57;;;5.40;;
70927;SDS011;58587;53.034;18.576;2023-10-19T19:30:13;12.83;;;7.10;;
70927;SDS011;58587;53.034;18.576;2023-10-19T19:32:39;12.20;;;6.00;;
70927;SDS011;58587;53.034;18.576;2023-10-19T19:35:05;16.83;;;7.00;;
70927;SDS011;58587;53.034;18.576;2023-10-19T19:37:30;18.07;;;8.37;;
70927;SDS011;58587;53.034;18.576;2023-10-19T19:40:00;13.73;;;7.07;;
70927;SDS011;58587;53.034;18.576;2023-10-19T19:42:27;19.08;;;7.45;;
70927;SDS011;58587;53.034;18.576;2023-10-19T19:44:53;12.17;;;5.70;;
70927;SDS011;58587;53.034;18.576;2023-10-19T19:47:18;11.00;;;5.30;;
70927;SDS011;58587;53.034;18.576;2023-10-19T19:49:44;11.82;;;5.53;;
70927;SDS011;58587;53.034;18.576;2023-10-19T19:52:09;12.03;;;6.00;;
70927;SDS011;58587;53.034;18.576;2023-10-19T19:54:37;12.15;;;5.43;;
70927;SDS011;58587;53.034;18.576;2023-10-19T19:57:02;9.87;;;5.13;;
70927;SDS011;58587;53.034;18.576;2023-10-19T19:59:28;11.30;;;5.80;;
70927;SDS011;58587;53.034;18.576;2023-10-19T20:01:55;13.07;;;5.47;;
70927;SDS011;58587;53.034;18.576;2023-10-19T20:04:20;8.95;;;5.28;;
70927;SDS011;58587;53.034;18.576;2023-10-19T20:06:48;10.03;;;4.20;;
70927;SDS011;58587;53.034;18.576;2023-10-19T20:09:14;9.77;;;4.65;;
70927;SDS011;58587;53.034;18.576;2023-10-19T20:11:42;9.23;;;4.95;;
70927;SDS011;58587;53.034;18.576;2023-10-19T20:14:08;13.00;;;5.38;;
70927;SDS011;58587;53.034;18.576;2023-10-19T20:16:33;9.03;;;4.83;;
70927;SDS011;58587;53.034;18.576;2023-10-19T20:18:59;10.85;;;5.00;;
70927;SDS011;58587;53.034;18.576;2023-10-19T20:21:24;11.87;;;5.90;;
70927;SDS011;58587;53.034;18.576;2023-10-19T20:23:50;10.25;;;5.30;;
70927;SDS011;58587;53.034;18.576;2023-10-19T20:26:16;9.57;;;5.37;;
70927;SDS011;58587;53.034;18.576;2023-10-19T20:28:42;10.07;;;4.82;;
70927;SDS011;58587;53.034;18.576;2023-10-19T20:31:07;9.27;;;4.70;;
70927;SDS011;58587;53.034;18.576;2023-10-19T20:33:32;10.43;;;5.30;;
70927;SDS011;58587;53.034;18.576;2023-10-19T20:35:58;12.37;;;5.67;;
70927;SDS011;58587;53.034;18.576;2023-10-19T20:38:23;8.93;;;5.10;;
70927;SDS011;58587;53.034;18.576;2023-10-19T20:40:49;9.80;;;4.95;;
70927;SDS011;58587;53.034;18.576;2023-10-19T20:43:17;10.97;;;5.47;;
70927;SDS011;58587;53.034;18.576;2023-10-19T20:45:46;10.98;;;5.70;;
70927;SDS011;58587;53.034;18.576;2023-10-19T20:48:14;10.10;;;5.32;;
70927;SDS011;58587;53.034;18.576;2023-10-19T20:50:41;9.82;;;4.97;;
70927;SDS011;58587;53.034;18.576;2023-10-19T20:53:08;11.23;;;5.85;;
70927;SDS011;58587;53.034;18.576;2023-10-19T20:55:34;11.85;;;5.53;;
70927;SDS011;58587;53.034;18.576;2023-10-19T20:57:59;9.75;;;5.65;;
70927;SDS011;58587;53.034;18.576;2023-10-19T21:00:24;11.50;;;5.57;;
70927;SDS011;58587;53.034;18.576;2023-10-19T21:02:51;11.57;;;5.60;;
70927;SDS011;58587;53.034;18.576;2023-10-19T21:05:17;12.20;;;5.80;;
70927;SDS011;58587;53.034;18.576;2023-10-19T21:07:44;9.75;;;5.18;;
70927;SDS011;58587;53.034;18.576;2023-10-19T21:10:11;12.10;;;5.97;;
70927;SDS011;58587;53.034;18.576;2023-10-19T21:12:40;13.95;;;6.05;;
70927;SDS011;58587;53.034;18.576;2023-10-19T21:15:09;10.63;;;5.60;;
70927;SDS011;58587;53.034;18.576;2023-10-19T21:17:42;10.02;;;5.72;;
70927;SDS011;58587;53.034;18.576;2023-10-19T21:20:12;11.50;;;5.93;;
70927;SDS011;58587;53.034;18.576;2023-10-19T21:22:40;15.55;;;5.55;;
70927;SDS011;58587;53.034;18.576;2023-10-19T21:25:08;10.23;;;5.75;;
70927;SDS011;58587;53.034;18.576;2023-10-19T21:27:38;9.80;;;5.73;;
70927;SDS011;58587;53.034;18.576;2023-10-19T21:30:05;10.88;;;5.85;;
70927;SDS011;58587;53.034;18.576;2023-10-19T21:32:32;10.77;;;5.45;;
70927;SDS011;58587;53.034;18.576;2023-10-19T21:34:58;12.00;;;5.30;;
70927;SDS011;58587;53.034;18.576;2023-10-19T21:37:24;10.77;;;5.65;;
70927;SDS011;58587;53.034;18.576;2023-10-19T21:39:51;10.95;;;5.57;;
70927;SDS011;58587;53.034;18.576;2023-10-19T21:42:16;11.43;;;5.63;;
70927;SDS011;58587;53.034;18.576;2023-10-19T21:44:44;10.23;;;5.20;;
70927;SDS011;58587;53.034;18.576;2023-10-19T21:47:10;10.85;;;5.53;;
70927;SDS011;58587;53.034;18.576;2023-10-19T21:49:36;10.45;;;4.72;;
70927;SDS011;58587;53.034;18.576;2023-10-19T21:52:02;9.20;;;4.93;;
70927;SDS011;58587;53.034;18.576;2023-10-19T21:54:28;9.10;;;4.82;;
70927;SDS011;58587;53.034;18.576;2023-10-19T21:56:53;8.20;;;4.77;;
70927;SDS011;58587;53.034;18.576;2023-10-19T21:59:18;9.63;;;5.00;;
70927;SDS011;58587;53.034;18.576;2023-10-19T22:01:44;8.60;;;5.07;;
70927;SDS011;58587;53.034;18.576;2023-10-19T22:04:11;9.50;;;4.95;;
70927;SDS011;58587;53.034;18.576;2023-10-19T22:06:37;8.85;;;4.90;;
70927;SDS011;58587;53.034;18.576;2023-10-19T22:09:03;11.85;;;5.07;;
70927;SDS011;58587;53.034;18.576;2023-10-19T22:11:28;9.67;;;5.10;;
70927;SDS011;58587;53.034;18.576;2023-10-19T22:13:54;10.80;;;6.00;;
70927;SDS011;58587;53.034;18.576;2023-10-19T22:16:20;7.90;;;4.57;;
70927;SDS011;58587;53.034;18.576;2023-10-19T22:18:45;10.27;;;5.40;;
70927;SDS011;58587;53.034;18.576;2023-10-19T22:21:11;10.52;;;4.75;;
70927;SDS011;58587;53.034;18.576;2023-10-19T22:23:37;13.63;;;5.27;;
70927;SDS011;58587;53.034;18.576;2023-10-19T22:26:02;10.55;;;5.10;;
70927;SDS011;58587;53.034;18.576;2023-10-19T22:28:28;11.00;;;5.00;;
70927;SDS011;58587;53.034;18.576;2023-10-19T22:30:53;8.93;;;4.70;;
70927;SDS011;58587;53.034;18.576;2023-10-19T22:33:19;10.50;;;4.97;;
70927;SDS011;58587;53.034;18.576;2023-10-19T22:35:47;7.47;;;4.10;;
70927;SDS011;58587;53.034;18.576;2023-10-19T22:38:14;8.23;;;4.88;;
70927;SDS011;58587;53.034;18.576;2023-10-19T22:40:39;10.27;;;5.20;;
70927;SDS011;58587;53.034;18.576;2023-10-19T22:43:05;10.63;;;5.17;;
70927;SDS011;58587;53.034;18.576;2023-10-19T22:45:30;8.15;;;4.65;;
70927;SDS011;58587;53.034;18.576;2023-10-19T22:47:56;9.33;;;4.90;;
70927;SDS011;58587;53.034;18.576;2023-10-19T22:50:21;8.30;;;4.70;;
70927;SDS011;58587;53.034;18.576;2023-10-19T22:52:46;9.67;;;4.83;;
70927;SDS011;58587;53.034;18.576;2023-10-19T22:55:12;9.10;;;4.97;;
70927;SDS011;58587;53.034;18.576;2023-10-19T22:57:41;9.15;;;4.82;;
70927;SDS011;58587;53.034;18.576;2023-10-19T23:00:07;9.80;;;5.00;;
70927;SDS011;58587;53.034;18.576;2023-10-19T23:02:39;7.50;;;4.40;;
70927;SDS011;58587;53.034;18.576;2023-10-19T23:05:11;8.25;;;4.38;;
70927;SDS011;58587;53.034;18.576;2023-10-19T23:07:37;7.85;;;4.43;;
70927;SDS011;58587;53.034;18.576;2023-10-19T23:10:03;8.38;;;4.88;;
70927;SDS011;58587;53.034;18.576;2023-10-19T23:12:33;8.93;;;4.70;;
70927;SDS011;58587;53.034;18.576;2023-10-19T23:15:02;8.35;;;4.22;;
70927;SDS011;58587;53.034;18.576;2023-10-19T23:17:34;7.93;;;3.95;;
70927;SDS011;58587;53.034;18.576;2023-10-19T23:19:59;8.82;;;4.57;;
70927;SDS011;58587;53.034;18.576;2023-10-19T23:22:33;9.20;;;4.05;;
70927;SDS011;58587;53.034;18.576;2023-10-19T23:25:00;7.45;;;4.40;;
70927;SDS011;58587;53.034;18.576;2023-10-19T23:27:25;7.50;;;4.07;;
70927;SDS011;58587;53.034;18.576;2023-10-19T23:29:52;8.07;;;4.13;;
70927;SDS011;58587;53.034;18.576;2023-10-19T23:32:18;9.10;;;4.17;;
70927;SDS011;58587;53.034;18.576;2023-10-19T23:34:45;8.30;;;4.30;;
70927;SDS011;58587;53.034;18.576;2023-10-19T23:37:12;6.88;;;3.85;;
70927;SDS011;58587;53.034;18.576;2023-10-19T23:39:39;7.82;;;4.07;;
70927;SDS011;58587;53.034;18.576;2023-10-19T23:42:13;8.07;;;4.57;;
70927;SDS011;58587;53.034;18.576;2023-10-19T23:44:40;9.02;;;4.22;;
70927;SDS011;58587;53.034;18.576;2023-10-19T23:47:06;10.00;;;3.92;;
70927;SDS011;58587;53.034;18.576;2023-10-19T23:49:32;8.68;;;3.85;;
70927;SDS011;58587;53.034;18.576;2023-10-19T23:51:58;8.07;;;4.30;;
70927;SDS011;58587;53.034;18.576;2023-10-19T23:54:23;9.68;;;3.63;;
70927;SDS011;58587;53.034;18.576;2023-10-19T23:56:50;8.25;;;3.92;;
70927;SDS011;58587;53.034;18.576;2023-10-19T23:59:16;7.35;;;3.72;;
